Terminal Aerodrome Forecast
Issued by NWS

Home | Current Version | Previous Version | Text Only | Print | Product List | Glossary On
Versions: 1 2 3 4 5 6 7 8 9 10 11 12 13 14 15
261
FTUS45 KTFX 260544
TAFHLN
TAF
KHLN 260544Z 2606/2706 VRB05KT P6SM SCT070 BKN120
     FM261000 VRB05KT P6SM SCT100
     FM261700 29010KT P6SM SCT070 BKN120 PROB30 2621/2703 -SHRA
      BKN050=

USA.gov is the U.S. government's official web portal to all federal, state and local government web resources and services.